Aérodrome :







RETROUVEZ-NOUS SUR...

 
LOGIN :

S'inscrire | Disclaimer

   EN    FR    IT 

 









Légende :    VFR   VFR Marginal   IFR   IFR Intensif   IFR Très Intensif
Visi : 
Plafond : 
>= 8 km
>= 3000ft
5 à 8 km
1000 à 3000 ft
1500m à 5 km
500 à 1000 ft
800 à 1500m
200 à 500 ft
< 800m
< 200 ft
Symboles :   Orages  Brouillard  Fortes neiges  Fortes précipitations  Vent > 20 kt






- Altitude de l'aérodrome : 141 ft
- Code IATA : YQI


CYQI - Yarmouth

DERNIER METAR :
  • 261700Z 29010KT 12SM FEW017 BKN038 OVC110 06/04 A3001 RMK CU1SC5AC2 SLP165

METARs EXPIRÉS :
  • 261600Z 28004KT 12SM FEW016 SCT036 BKN100 09/06 A3000 RMK CU1SC4AC3 CU TR SLP162
  • 261500Z 00000KT 12SM FEW011 FEW056 BKN100 08/05 A3000 RMK CF1SC2AC3 CF TR SLP161

TAF AMD TAF CYQI
Valide du 26 à 13h jusqu'au 27 à 00h UTC


261355Z 2613/2624 VRB03KT P6SM SCT005 BKN100
TEMPO 2613/2618 2SM BR BKN005
FM261800 VRB03KT P6SM SCT015
TEMPO 2618/2621 BKN015
FM262100 19005KT 3/4SM BR OVC003 RMK NXT FCST BY 261800Z



MET'MAP, la Météo Aéronautique d'un coup d'oeil ! - Copyright ORBIFLY Décembre 2007 - Disclaimer

ORBIFLY MET'MAP TEAM :

Programmation & Développement : Alexandra Zaïnal
Sur une idée originale de : Baudouin d'Aumeries
Assistance à la programmation : Marc-Olivier Méhu
Soutien technique & logistique : Manuel Goepfert

Contact : metmap@orbifly.com




SOURCES & CREDITS :

   NOAA